Time;durP1;ratioP1;P1;durP2;ratioP2;P2;SDS_P1;SDS_P2;PMS_P1;PMS_P2;Temp;Humidity;BMP_temperature;BMP_pressure;BME280_temperature;BME280_humidity;BME280_pressure;Samples;Min_cycle;Max_cycle;Signal;HPM_P1;HPM_P2
2023/01/05 00:02:13;;;;;;;24.67;5.47;;;;;;;9.67;100.00;101517.88;5245248;28;20475;-71
2023/01/05 00:04:45;;;;;;;22.77;5.38;;;;;;;9.63;100.00;101511.88;5244814;28;20107;-71
2023/01/05 00:07:16;;;;;;;25.85;5.78;;;;;;;9.64;100.00;101502.06;5247586;28;20044;-71
2023/01/05 00:09:47;;;;;;;28.90;6.30;;;;;;;9.64;100.00;101516.22;5244254;28;20029;-72
2023/01/05 00:23:39;;;;;;;28.30;6.07;;;;;;;9.47;100.00;101519.91;5248405;28;20033;-71
2023/01/05 00:26:10;;;;;;;25.67;5.38;;;;;;;9.46;100.00;101518.22;5251169;28;20029;-70
2023/01/05 00:28:41;;;;;;;24.90;5.20;;;;;;;9.50;100.00;101521.56;5249298;28;20352;-71
2023/01/05 00:31:12;;;;;;;25.60;5.63;;;;;;;9.44;100.00;101520.13;5244827;28;20036;-70
2023/01/05 00:33:44;;;;;;;27.58;5.60;;;;;;;9.42;100.00;101528.19;5247350;28;20020;-71
2023/01/05 00:36:15;;;;;;;25.92;5.18;;;;;;;9.37;100.00;101518.78;5248790;28;20036;-70
2023/01/05 00:38:46;;;;;;;27.00;5.85;;;;;;;9.34;100.00;101525.16;5248279;28;20048;-71
2023/01/05 00:41:17;;;;;;;24.38;5.18;;;;;;;9.30;100.00;101522.75;5246869;28;20375;-71
2023/01/05 00:43:49;;;;;;;30.38;5.72;;;;;;;9.28;100.00;101522.00;5247488;28;20032;-70
2023/01/05 00:46:20;;;;;;;27.75;6.22;;;;;;;9.23;100.00;101528.44;5244509;28;20056;-71
2023/01/05 00:48:51;;;;;;;27.23;6.38;;;;;;;9.23;100.00;101528.44;5244931;28;20032;-71
2023/01/05 00:51:23;;;;;;;25.77;5.53;;;;;;;9.22;100.00;101532.09;5246793;28;20025;-70
2023/01/05 00:53:54;;;;;;;25.25;5.07;;;;;;;9.23;100.00;101523.13;5244804;28;20439;-70
2023/01/05 00:56:25;;;;;;;30.13;5.30;;;;;;;9.16;100.00;101523.59;5248233;28;20032;-71
2023/01/05 00:58:56;;;;;;;22.23;5.57;;;;;;;9.08;100.00;101532.03;5247231;28;20036;-71
2023/01/05 01:01:28;;;;;;;26.17;5.70;;;;;;;9.06;100.00;101519.78;5249318;28;20025;-71
2023/01/05 01:03:59;;;;;;;27.52;5.35;;;;;;;9.00;100.00;101529.81;5249453;28;20031;-70
2023/01/05 01:06:30;;;;;;;25.80;5.30;;;;;;;8.99;100.00;101532.56;5244807;28;20246;-71
2023/01/05 01:09:02;;;;;;;26.08;5.45;;;;;;;8.96;100.00;101535.44;5246136;28;20025;-71
2023/01/05 01:11:33;;;;;;;23.63;5.07;;;;;;;8.91;100.00;101530.34;5248231;28;20162;-71
2023/01/05 01:14:06;;;;;;;27.48;6.07;;;;;;;8.88;100.00;101545.63;5250856;28;20057;-71
2023/01/05 01:16:39;;;;;;;29.17;6.43;;;;;;;8.85;100.00;101543.19;5243922;28;20157;-70
2023/01/05 01:19:14;;;;;;;27.65;6.53;;;;;;;8.82;100.00;101533.53;5248926;28;20526;-71
2023/01/05 01:21:45;;;;;;;30.17;5.82;;;;;;;8.77;100.00;101535.63;5250544;28;20116;-70
2023/01/05 01:24:26;;;;;;;25.48;5.55;;;;;;;8.73;100.00;101548.25;5245147;28;20528;-71
2023/01/05 01:26:57;;;;;;;29.20;6.20;;;;;;;8.75;100.00;101551.69;5247561;28;20033;-71
2023/01/05 01:29:29;;;;;;;35.47;7.43;;;;;;;8.67;100.00;101561.91;5253195;28;20025;-71
2023/01/05 01:32:00;;;;;;;27.50;6.43;;;;;;;8.66;100.00;101549.53;5247996;28;20028;-70
2023/01/05 01:34:32;;;;;;;26.73;5.78;;;;;;;8.65;100.00;101550.50;5249780;28;20387;-70
2023/01/05 01:37:04;;;;;;;28.38;5.25;;;;;;;8.60;100.00;101552.56;5252758;28;20033;-70
2023/01/05 01:39:35;;;;;;;27.85;5.80;;;;;;;8.56;100.00;101559.00;5252110;28;20028;-71
2023/01/05 01:42:12;;;;;;;28.48;5.05;;;;;;;8.58;100.00;101560.63;5248285;28;20021;-71
2023/01/05 01:44:52;;;;;;;29.58;5.88;;;;;;;8.57;100.00;101558.03;5248434;28;20029;-70
2023/01/05 01:47:38;;;;;;;28.63;5.80;;;;;;;8.59;100.00;101574.78;5252252;28;20025;-70
2023/01/05 01:50:33;;;;;;;30.60;6.13;;;;;;;8.57;100.00;101564.25;5248022;28;20505;-71
2023/01/05 01:53:08;;;;;;;29.42;5.13;;;;;;;8.57;100.00;101571.34;5253053;28;20048;-70
2023/01/05 01:55:41;;;;;;;28.83;5.50;;;;;;;8.62;100.00;101566.63;5252816;28;20394;-71
2023/01/05 01:58:16;;;;;;;33.25;7.00;;;;;;;8.65;100.00;101566.47;5252417;28;20029;-70
2023/01/05 02:00:47;;;;;;;31.33;5.82;;;;;;;8.66;100.00;101573.50;5250075;28;20032;-70
2023/01/05 02:03:19;;;;;;;27.63;5.40;;;;;;;8.70;100.00;101569.69;5253505;28;20025;-70
2023/01/05 02:05:52;;;;;;;33.83;5.50;;;;;;;8.70;100.00;101574.19;5250293;28;20037;-70
2023/01/05 02:08:32;;;;;;;35.53;6.68;;;;;;;8.70;100.00;101580.34;5252577;28;20021;-70
2023/01/05 02:11:14;;;;;;;31.80;6.28;;;;;;;8.73;100.00;101566.88;5252483;28;20463;-70
2023/01/05 02:14:13;;;;;;;27.35;5.82;;;;;;;8.72;100.00;101578.47;5251142;28;20347;-70
2023/01/05 02:17:13;;;;;;;32.10;6.38;;;;;;;8.73;100.00;101582.84;5246861;28;20044;-70
2023/01/05 02:20:12;;;;;;;37.00;6.32;;;;;;;8.76;100.00;101577.38;5246545;28;20041;-70
2023/01/05 02:23:17;;;;;;;28.40;5.63;;;;;;;8.79;100.00;101573.66;5252053;28;20029;-71
2023/01/05 02:26:20;;;;;;;30.08;5.93;;;;;;;8.80;100.00;101586.88;5252451;28;20428;-71
2023/01/05 02:29:10;;;;;;;25.23;5.30;;;;;;;8.87;100.00;101581.19;5251815;28;20124;-70
2023/01/05 02:31:47;;;;;;;32.70;6.28;;;;;;;8.85;100.00;101577.78;5247239;28;20033;-70
2023/01/05 02:34:26;;;;;;;30.40;6.68;;;;;;;8.86;100.00;101585.66;5253529;28;20086;-70
2023/01/05 02:37:12;;;;;;;29.42;6.30;;;;;;;8.94;100.00;101585.22;5251101;28;20451;-70
2023/01/05 02:39:59;;;;;;;30.00;6.45;;;;;;;8.97;100.00;101590.34;5252335;28;20040;-70
2023/01/05 02:42:33;;;;;;;35.38;5.60;;;;;;;9.02;100.00;101590.97;5254231;28;20068;-71
2023/01/05 02:45:06;;;;;;;28.58;5.68;;;;;;;8.99;100.00;101589.34;5251990;28;20039;-70
2023/01/05 02:47:40;;;;;;;23.13;5.28;;;;;;;9.01;100.00;101590.09;5251517;28;20048;-70
2023/01/05 02:50:18;;;;;;;;;;;;;;;9.09;100.00;101591.44;5250864;28;20299;-70
2023/01/05 02:52:59;;;;;;;23.00;5.32;;;;;;;9.05;100.00;101592.56;5252089;28;19943;-70
2023/01/05 02:56:04;;;;;;;26.25;5.95;;;;;;;9.08;100.00;101597.72;5249997;28;20437;-70
2023/01/05 02:58:44;;;;;;;26.90;5.35;;;;;;;9.09;100.00;101581.69;5249070;28;20028;-70
2023/01/05 03:01:21;;;;;;;23.55;4.72;;;;;;;9.14;100.00;101598.22;5249981;28;20443;-70
2023/01/05 03:03:58;;;;;;;26.85;6.28;;;;;;;9.15;100.00;101596.44;5252567;28;20120;-70
2023/01/05 03:06:37;;;;;;;30.48;5.88;;;;;;;9.19;100.00;101596.16;5242169;28;20045;-71
2023/01/05 03:09:08;;;;;;;28.92;5.65;;;;;;;9.23;100.00;101595.03;5255875;28;20036;-71
2023/01/05 03:15:03;;;;;;;28.42;5.88;;;;;;;9.32;100.00;101603.41;5251038;28;20036;-70
2023/01/05 03:17:43;;;;;;;27.65;5.03;;;;;;;9.29;100.00;101599.13;5250041;28;20024;-71
2023/01/05 03:20:19;;;;;;;24.00;5.50;;;;;;;9.31;100.00;101607.03;5250978;28;20514;-71
2023/01/05 03:37:56;;;;;;;29.13;5.70;;;;;;;9.35;100.00;101600.56;5252641;28;20088;-70
2023/01/05 03:40:30;;;;;;;25.60;4.82;;;;;;;9.34;100.00;101606.84;5245701;28;20040;-70
2023/01/05 03:43:03;;;;;;;26.27;5.25;;;;;;;9.35;100.00;101608.56;5249327;28;20099;-70
2023/01/05 03:45:44;;;;;;;24.25;5.03;;;;;;;9.42;100.00;101607.25;5249496;28;20024;-70
2023/01/05 03:48:16;;;;;;;31.42;5.15;;;;;;;9.41;100.00;101605.53;5243136;28;20044;-70
2023/01/05 03:50:47;;;;;;;28.02;5.15;;;;;;;9.44;100.00;101609.84;5249664;28;20025;-70
2023/01/05 03:53:18;;;;;;;27.60;4.72;;;;;;;9.46;100.00;101614.13;5249446;28;20027;-71
2023/01/05 03:55:50;;;;;;;28.08;5.15;;;;;;;9.44;100.00;101621.34;5250107;28;20094;-70
2023/01/05 03:58:21;;;;;;;29.65;5.65;;;;;;;9.48;100.00;101622.88;5247008;28;20063;-70
2023/01/05 04:00:52;;;;;;;29.67;6.15;;;;;;;9.47;100.00;101618.47;5252474;28;20040;-70
2023/01/05 04:03:24;;;;;;;31.98;5.85;;;;;;;9.46;100.00;101616.78;5252386;28;20120;-70
2023/01/05 04:05:55;;;;;;;28.05;5.57;;;;;;;9.56;100.00;101620.59;5250386;28;20482;-70
2023/01/05 04:08:26;;;;;;;24.92;4.85;;;;;;;9.52;100.00;101624.41;5248928;28;20049;-70
2023/01/05 04:11:18;;;;;;;23.58;5.65;;;;;;;9.57;100.00;101621.47;5249259;28;20112;-70
2023/01/05 04:13:50;;;;;;;31.58;5.63;;;;;;;9.58;100.00;101615.19;5251480;28;20025;-70
2023/01/05 04:16:22;;;;;;;34.03;7.18;;;;;;;9.55;100.00;101613.56;5251749;28;20029;-70
2023/01/05 04:18:53;;;;;;;29.15;5.78;;;;;;;9.55;100.00;101602.03;5247312;28;20057;-70
2023/01/05 04:21:24;;;;;;;26.17;5.65;;;;;;;9.53;100.00;101617.25;5251500;28;20036;-70
2023/01/05 04:23:55;;;;;;;27.08;5.55;;;;;;;9.55;100.00;101616.25;5248040;28;20112;-70
2023/01/05 04:26:27;;;;;;;26.67;5.38;;;;;;;9.54;100.00;101616.31;5248481;28;20037;-70
2023/01/05 04:28:58;;;;;;;32.65;5.80;;;;;;;9.53;100.00;101631.47;5250210;28;20114;-70
2023/01/05 04:31:30;;;;;;;31.42;5.57;;;;;;;9.53;100.00;101620.81;5249068;28;20025;-70
2023/01/05 04:34:01;;;;;;;31.08;5.50;;;;;;;9.58;100.00;101618.69;5250590;28;20039;-70
2023/01/05 04:36:33;;;;;;;30.30;5.60;;;;;;;9.58;100.00;101616.03;5248676;28;20051;-70
2023/01/05 04:39:04;;;;;;;27.58;5.38;;;;;;;9.57;100.00;101617.00;5249157;28;20040;-70
2023/01/05 04:41:35;;;;;;;31.30;5.75;;;;;;;9.53;100.00;101626.13;5243231;28;20028;-70
2023/01/05 04:44:06;;;;;;;21.17;4.53;;;;;;;9.56;100.00;101619.75;5250150;28;20270;-70
2023/01/05 04:46:38;;;;;;;24.23;5.05;;;;;;;9.54;100.00;101614.50;5253052;28;20033;-70
2023/01/05 04:49:09;;;;;;;27.80;5.45;;;;;;;9.62;100.00;101616.72;5254254;28;20029;-70
2023/01/05 04:51:41;;;;;;;27.58;5.72;;;;;;;9.60;100.00;101611.47;5254229;28;20071;-70
2023/01/05 04:54:12;;;;;;;28.58;5.30;;;;;;;9.61;100.00;101615.88;5252542;28;20035;-70
2023/01/05 04:56:43;;;;;;;25.45;4.53;;;;;;;9.62;100.00;101609.56;5254580;28;20040;-70
2023/01/05 04:59:15;;;;;;;28.58;5.43;;;;;;;9.59;100.00;101617.75;5251861;28;20028;-70
2023/01/05 05:01:46;;;;;;;29.85;5.63;;;;;;;9.62;100.00;101630.88;5249626;28;20041;-71
2023/01/05 05:04:17;;;;;;;28.40;5.47;;;;;;;9.63;100.00;101631.75;5253310;28;20517;-70
2023/01/05 05:06:48;;;;;;;22.70;5.22;;;;;;;9.65;100.00;101621.88;5252819;28;20498;-70
2023/01/05 05:09:20;;;;;;;22.08;4.95;;;;;;;9.64;100.00;101637.94;5254704;28;20036;-70
2023/01/05 05:11:51;;;;;;;35.00;5.93;;;;;;;9.59;100.00;101625.75;5254390;28;20104;-70
2023/01/05 05:14:22;;;;;;;26.33;4.53;;;;;;;9.64;100.00;101635.28;5252991;28;20398;-70
2023/01/05 05:16:54;;;;;;;28.50;5.40;;;;;;;9.62;100.00;101636.22;5252954;28;20037;-71
2023/01/05 05:19:25;;;;;;;25.27;5.10;;;;;;;9.60;100.00;101648.78;5254148;28;20075;-70
2023/01/05 05:21:56;;;;;;;26.08;6.10;;;;;;;9.62;100.00;101644.22;5253924;28;20126;-70
2023/01/05 05:24:27;;;;;;;24.48;5.47;;;;;;;9.66;100.00;101652.03;5250817;28;20167;-70
2023/01/05 05:26:59;;;;;;;34.28;5.90;;;;;;;9.67;100.00;101654.59;5250449;28;20065;-70
2023/01/05 05:29:30;;;;;;;34.38;5.95;;;;;;;9.65;100.00;101634.34;5253868;28;20037;-70
2023/01/05 05:32:02;;;;;;;32.13;6.90;;;;;;;9.75;100.00;101657.66;5256402;28;20047;-70
2023/01/05 05:34:34;;;;;;;30.25;5.70;;;;;;;9.69;100.00;101654.53;5247173;28;20040;-70
2023/01/05 05:37:05;;;;;;;33.08;7.22;;;;;;;9.64;100.00;101660.09;5255309;28;20078;-70
2023/01/05 05:39:36;;;;;;;31.77;5.78;;;;;;;9.68;100.00;101666.13;5253265;28;20583;-70
2023/01/05 05:42:08;;;;;;;24.80;5.35;;;;;;;9.64;100.00;101659.25;5255983;28;20033;-70
2023/01/05 05:44:39;;;;;;;26.75;5.70;;;;;;;9.68;100.00;101658.13;5254267;28;20041;-70
2023/01/05 05:47:10;;;;;;;31.30;6.93;;;;;;;9.66;100.00;101657.34;5252454;28;20041;-70
2023/01/05 05:49:42;;;;;;;28.85;6.43;;;;;;;9.63;100.00;101666.41;5251923;28;20128;-70
2023/01/05 05:52:13;;;;;;;30.33;7.22;;;;;;;9.62;100.00;101684.16;5255804;28;20036;-70
2023/01/05 05:54:44;;;;;;;25.60;5.78;;;;;;;9.64;100.00;101672.56;5248351;28;20529;-71
2023/01/05 05:57:16;;;;;;;25.70;5.88;;;;;;;9.64;100.00;101675.25;5255788;28;20425;-70
2023/01/05 05:59:47;;;;;;;28.15;5.93;;;;;;;9.62;100.00;101678.84;5255210;28;20090;-70
2023/01/05 06:02:18;;;;;;;24.60;5.45;;;;;;;9.61;100.00;101676.28;5252115;28;20032;-70
2023/01/05 06:04:50;;;;;;;32.35;6.13;;;;;;;9.63;100.00;101690.38;5251858;28;20039;-70
2023/01/05 06:07:21;;;;;;;32.28;5.38;;;;;;;9.60;100.00;101695.88;5249205;28;20033;-70
2023/01/05 06:09:52;;;;;;;31.55;5.75;;;;;;;9.61;100.00;101698.47;5249847;28;20038;-70
2023/01/05 06:12:23;;;;;;;34.85;6.80;;;;;;;9.58;100.00;101700.44;5254778;28;20071;-70
2023/01/05 06:14:55;;;;;;;29.77;6.85;;;;;;;9.57;100.00;101696.94;5249170;28;20044;-70
2023/01/05 06:17:26;;;;;;;34.38;6.75;;;;;;;9.56;100.00;101697.84;5250560;28;20029;-70
2023/01/05 06:19:57;;;;;;;31.95;6.10;;;;;;;9.59;100.00;101697.69;5250647;28;20052;-70
2023/01/05 06:22:29;;;;;;;27.33;5.75;;;;;;;9.58;100.00;101709.28;5251053;28;20463;-70
2023/01/05 06:25:00;;;;;;;36.95;7.45;;;;;;;9.58;100.00;101719.09;5248553;28;20174;-70
2023/01/05 06:27:31;;;;;;;36.67;6.07;;;;;;;9.60;100.00;101718.03;5247490;28;20053;-70
2023/01/05 06:30:03;;;;;;;30.60;6.60;;;;;;;9.63;100.00;101722.34;5245481;28;20029;-70
2023/01/05 06:32:34;;;;;;;32.40;5.95;;;;;;;9.67;100.00;101721.22;5251737;28;20021;-70
2023/01/05 06:35:06;;;;;;;30.00;6.68;;;;;;;9.66;100.00;101726.63;5249110;28;20024;-70
2023/01/05 06:37:37;;;;;;;24.80;5.18;;;;;;;9.60;100.00;101711.88;5252282;28;20124;-70
2023/01/05 06:40:10;;;;;;;33.60;7.22;;;;;;;9.58;100.00;101727.94;5250835;28;20033;-70
2023/01/05 06:42:42;;;;;;;28.98;6.28;;;;;;;9.56;100.00;101732.50;5252860;28;20067;-70
2023/01/05 06:45:14;;;;;;;41.33;7.97;;;;;;;9.53;100.00;101735.34;5246391;28;20777;-70
2023/01/05 06:47:46;;;;;;;34.15;6.18;;;;;;;9.54;100.00;101742.38;5253937;28;20037;-70
2023/01/05 06:50:17;;;;;;;34.78;6.70;;;;;;;9.51;100.00;101739.03;5253786;28;20059;-70
2023/01/05 06:52:48;;;;;;;30.23;6.40;;;;;;;9.53;100.00;101748.69;5244623;28;20510;-70
2023/01/05 06:55:20;;;;;;;35.95;6.60;;;;;;;9.53;100.00;101748.69;5245727;28;20095;-70
2023/01/05 06:57:52;;;;;;;33.85;7.18;;;;;;;9.55;100.00;101754.78;5253245;28;20041;-70
2023/01/05 07:00:23;;;;;;;42.95;7.05;;;;;;;9.53;100.00;101762.00;5253324;28;20043;-70
2023/01/05 07:02:55;;;;;;;34.95;6.20;;;;;;;9.51;100.00;101760.34;5251615;28;20223;-70
2023/01/05 07:05:26;;;;;;;33.90;7.60;;;;;;;9.57;100.00;101760.88;5252611;28;20041;-70
2023/01/05 07:07:57;;;;;;;36.67;8.32;;;;;;;9.55;100.00;101764.53;5254302;28;20124;-70
2023/01/05 07:10:29;;;;;;;34.55;7.20;;;;;;;9.52;100.00;101762.94;5251550;28;20060;-70
2023/01/05 07:13:00;;;;;;;39.95;8.43;;;;;;;9.48;100.00;101765.88;5251364;28;20021;-70
2023/01/05 07:15:31;;;;;;;33.53;6.65;;;;;;;9.48;100.00;101756.06;5249368;28;20059;-70
2023/01/05 07:18:03;;;;;;;38.85;7.40;;;;;;;9.49;100.00;101762.25;5254894;28;20074;-70
2023/01/05 07:20:34;;;;;;;33.08;6.72;;;;;;;9.46;100.00;101747.31;5251110;28;20406;-71
2023/01/05 07:23:05;;;;;;;39.42;7.05;;;;;;;9.45;100.00;101756.22;5252685;28;20063;-70
2023/01/05 07:25:36;;;;;;;37.33;8.25;;;;;;;9.49;100.00;101764.91;5254837;28;20487;-70
2023/01/05 07:28:08;;;;;;;35.20;6.53;;;;;;;9.49;100.00;101768.44;5254515;28;20429;-70
2023/01/05 07:30:39;;;;;;;28.67;6.95;;;;;;;9.47;100.00;101770.31;5249530;28;20033;-70
2023/01/05 07:33:10;;;;;;;28.92;6.40;;;;;;;9.44;100.00;101775.84;5250053;28;20036;-70
2023/01/05 07:35:41;;;;;;;41.03;7.63;;;;;;;9.45;100.00;101771.34;5249018;28;20037;-70
2023/01/05 07:38:13;;;;;;;35.80;6.30;;;;;;;9.45;100.00;101782.00;5248369;28;20044;-70
2023/01/05 07:40:44;;;;;;;35.85;7.30;;;;;;;9.44;100.00;101783.81;5247907;28;20094;-70
2023/01/05 07:43:15;;;;;;;35.10;7.05;;;;;;;9.44;100.00;101794.47;5246268;28;20471;-70
2023/01/05 07:45:47;;;;;;;36.22;7.85;;;;;;;9.46;100.00;101789.06;5247315;28;20647;-70
2023/01/05 07:48:18;;;;;;;35.83;6.95;;;;;;;9.45;100.00;101796.19;5247742;28;20486;-70
2023/01/05 07:50:50;;;;;;;38.53;7.72;;;;;;;9.47;100.00;101790.78;5246028;28;20116;-70
2023/01/05 07:53:22;;;;;;;37.83;7.25;;;;;;;9.40;100.00;101790.28;5253135;28;20036;-70
2023/01/05 07:56:00;;;;;;;38.70;6.80;;;;;;;9.42;100.00;101788.38;5244969;28;20499;-71
2023/01/05 07:58:32;;;;;;;37.17;6.75;;;;;;;9.44;100.00;101794.47;5246675;28;20041;-70
2023/01/05 08:01:10;;;;;;;37.92;7.20;;;;;;;9.41;100.00;101799.97;5251475;28;20032;-70
2023/01/05 08:03:41;;;;;;;32.60;6.68;;;;;;;9.37;100.00;101793.94;5252736;28;20032;-70
2023/01/05 08:06:16;;;;;;;35.20;7.22;;;;;;;9.37;100.00;101804.59;5248222;28;20433;-70
2023/01/05 08:08:47;;;;;;;33.20;7.07;;;;;;;9.39;100.00;101805.38;5250902;28;20040;-70
2023/01/05 08:11:20;;;;;;;34.38;7.25;;;;;;;9.38;100.00;101816.13;5254167;28;20479;-70
2023/01/05 08:14:04;;;;;;;40.83;8.00;;;;;;;9.40;100.00;101809.78;5251114;28;20501;-70
2023/01/05 08:16:35;;;;;;;40.67;7.33;;;;;;;9.44;100.00;101818.44;5248198;28;20037;-70
2023/01/05 08:19:07;;;;;;;34.50;8.30;;;;;;;9.40;100.00;101807.09;5257151;28;20368;-70
2023/01/05 08:21:39;;;;;;;35.95;8.23;;;;;;;9.44;100.00;101822.94;5254261;28;20108;-70
2023/01/05 08:24:10;;;;;;;33.67;8.10;;;;;;;9.44;100.00;101821.13;5254264;28;20070;-70
2023/01/05 08:26:41;;;;;;;28.80;6.45;;;;;;;9.46;100.00;101829.88;5253787;28;20033;-70
2023/01/05 08:29:13;;;;;;;32.72;6.53;;;;;;;9.46;100.00;101823.69;5254326;28;20391;-70
2023/01/05 08:31:44;;;;;;;42.40;9.02;;;;;;;9.45;100.00;101829.97;5252055;28;20464;-70
2023/01/05 08:34:15;;;;;;;43.53;8.27;;;;;;;9.44;100.00;101833.59;5254659;28;20040;-71
2023/01/05 08:36:47;;;;;;;37.60;8.40;;;;;;;9.46;100.00;101827.22;5253204;28;20101;-70
2023/01/05 08:39:18;;;;;;;37.30;6.53;;;;;;;9.44;100.00;101833.59;5256728;28;20075;-70
2023/01/05 08:41:49;;;;;;;36.35;6.65;;;;;;;9.42;100.00;101828.34;5254588;28;20033;-70
2023/01/05 08:44:21;;;;;;;32.22;6.10;;;;;;;9.42;100.00;101846.97;5252341;28;20036;-70
2023/01/05 08:46:52;;;;;;;33.28;6.88;;;;;;;9.43;100.00;101848.69;5253102;28;20052;-70
2023/01/05 08:49:23;;;;;;;35.90;7.18;;;;;;;9.43;100.00;101851.34;5252630;28;20037;-70
2023/01/05 08:51:54;;;;;;;36.13;7.30;;;;;;;9.45;100.00;101864.59;5246177;28;20124;-70
2023/01/05 08:54:26;;;;;;;28.90;6.18;;;;;;;9.46;100.00;101867.19;5251653;28;20060;-70
2023/01/05 08:56:57;;;;;;;35.05;6.28;;;;;;;9.48;100.00;101865.28;5251628;28;20028;-70
2023/01/05 08:59:28;;;;;;;39.15;6.80;;;;;;;9.48;100.00;101865.28;5253193;28;20048;-70
2023/01/05 09:02:00;;;;;;;34.67;6.72;;;;;;;9.51;100.00;101859.78;5251374;28;20040;-70
2023/01/05 09:04:31;;;;;;;33.22;7.18;;;;;;;9.52;100.00;101864.16;5254327;28;20116;-70
2023/01/05 09:07:02;;;;;;;38.20;7.07;;;;;;;9.50;100.00;101866.06;5253657;28;20033;-70
2023/01/05 09:09:33;;;;;;;37.63;7.10;;;;;;;9.55;100.00;101865.78;5254179;28;20051;-71
2023/01/05 09:12:05;;;;;;;33.90;6.38;;;;;;;9.54;100.00;101878.25;5252252;28;20028;-70
2023/01/05 09:14:37;;;;;;;34.30;7.60;;;;;;;9.53;100.00;101875.66;5249458;28;20032;-70
2023/01/05 09:17:08;;;;;;;37.28;7.75;;;;;;;9.55;100.00;101869.34;5254595;28;20039;-70
2023/01/05 09:19:39;;;;;;;34.78;7.28;;;;;;;9.54;100.00;101888.91;5254343;28;20098;-70
2023/01/05 09:22:11;;;;;;;38.88;7.75;;;;;;;9.54;100.00;101878.25;5253099;28;20116;-70
2023/01/05 09:24:42;;;;;;;33.53;6.90;;;;;;;9.58;100.00;101882.47;5249697;28;20042;-70
2023/01/05 09:27:13;;;;;;;36.33;8.32;;;;;;;9.58;100.00;101881.63;5253018;28;20029;-70
2023/01/05 09:29:45;;;;;;;31.85;7.30;;;;;;;9.58;100.00;101890.47;5252731;28;20033;-70
2023/01/05 09:32:16;;;;;;;37.13;6.80;;;;;;;9.58;100.00;101893.13;5249530;28;20026;-70
2023/01/05 09:34:47;;;;;;;34.45;7.63;;;;;;;9.64;100.00;101896.41;5254784;28;20036;-70
2023/01/05 09:37:19;;;;;;;36.08;7.63;;;;;;;9.67;100.00;101904.25;5255454;28;20040;-70
2023/01/05 09:39:50;;;;;;;40.85;6.95;;;;;;;9.66;100.00;101911.34;5251442;28;20174;-70
2023/01/05 09:42:25;;;;;;;36.95;7.63;;;;;;;9.70;100.00;101906.72;5254778;28;20044;-70
2023/01/05 09:45:01;;;;;;;37.67;6.93;;;;;;;9.74;100.00;101916.25;5253917;28;20032;-70
2023/01/05 09:47:39;;;;;;;33.80;7.30;;;;;;;9.76;100.00;101906.38;5251773;28;20104;-70
2023/01/05 09:50:22;;;;;;;30.15;6.07;;;;;;;9.75;100.00;101910.00;5251504;28;20033;-70
2023/01/05 09:52:59;;;;;;;35.53;6.97;;;;;;;9.75;100.00;101920.66;5253652;28;20125;-70
2023/01/05 09:55:33;;;;;;;42.45;8.55;;;;;;;9.75;100.00;101913.50;5253595;28;20049;-71
2023/01/05 09:58:15;;;;;;;30.90;6.97;;;;;;;9.78;100.00;101923.16;5250790;28;20029;-70
2023/01/05 10:01:15;;;;;;;37.00;7.03;;;;;;;9.79;100.00;101922.19;5246938;28;20407;-70
2023/01/05 10:03:58;;;;;;;37.47;9.15;;;;;;;9.77;100.00;101919.59;5251777;28;20037;-71
2023/01/05 10:06:34;;;;;;;27.95;6.40;;;;;;;9.73;100.00;101922.53;5250700;28;20467;-70
2023/01/05 10:09:08;;;;;;;44.10;8.45;;;;;;;9.75;100.00;101923.31;5252732;28;20040;-70
2023/01/05 10:14:54;;;;;;;35.78;8.23;;;;;;;9.83;100.00;101934.41;5249332;28;20037;-70
2023/01/05 10:17:28;;;;;;;38.33;7.18;;;;;;;9.77;100.00;101932.09;5248721;28;20104;-71
2023/01/05 10:19:59;;;;;;;34.10;7.75;;;;;;;9.77;100.00;101926.75;5254569;28;20060;-70
2023/01/05 10:22:41;;;;;;;29.42;7.13;;;;;;;9.79;100.00;101931.03;5251496;28;21512;-70
2023/01/05 10:25:31;;;;;;;36.60;7.05;;;;;;;9.90;100.00;101934.94;5253410;28;20159;-71
2023/01/05 10:28:20;;;;;;;36.03;7.05;;;;;;;9.85;100.00;101945.84;5248790;28;20037;-71
2023/01/05 10:30:59;;;;;;;36.67;7.97;;;;;;;9.88;100.00;101939.50;5248279;28;20032;-70
2023/01/05 10:33:49;;;;;;;37.47;7.40;;;;;;;9.92;100.00;101944.56;5250281;28;20021;-70
2023/01/05 10:36:38;;;;;;;37.47;7.55;;;;;;;9.95;100.00;101940.84;5247604;28;20103;-70
2023/01/05 10:39:49;;;;;;;41.17;7.07;;;;;;;10.00;100.00;101938.78;5248326;28;20032;-70
2023/01/05 10:42:39;;;;;;;43.85;8.23;;;;;;;9.96;100.00;101945.25;5253782;28;20045;-71
2023/01/05 10:45:17;;;;;;;35.80;7.85;;;;;;;9.97;100.00;101942.50;5249818;28;20082;-70
2023/01/05 10:47:48;;;;;;;40.10;8.07;;;;;;;9.95;100.00;101940.84;5251667;28;20056;-71
2023/01/05 10:50:32;;;;;;;34.88;8.40;;;;;;;10.01;100.00;101941.38;5252257;28;20489;-70
2023/01/05 10:53:15;;;;;;;42.50;8.13;;;;;;;9.95;100.00;101943.50;5251011;28;20092;-71
2023/01/05 10:55:50;;;;;;;40.35;7.97;;;;;;;9.98;100.00;101951.34;5250609;28;20032;-71
2023/01/05 10:58:35;;;;;;;43.78;7.75;;;;;;;9.99;100.00;101948.59;5251990;28;20033;-70
2023/01/05 11:01:15;;;;;;;;;;;;;;;10.13;100.00;101954.97;5252717;28;20111;-70
2023/01/05 11:03:49;;;;;;;31.50;6.43;;;;;;;10.01;100.00;101949.38;5253544;28;20294;-70
2023/01/05 11:06:27;;;;;;;31.23;7.57;;;;;;;10.02;100.00;101955.56;5251346;28;20455;-71
2023/01/05 11:09:19;;;;;;;37.38;7.22;;;;;;;10.07;100.00;101964.16;5254857;28;20872;-70
2023/01/05 11:11:59;;;;;;;31.75;6.30;;;;;;;10.07;100.00;101957.94;5253263;28;20020;-70
2023/01/05 11:14:41;;;;;;;34.45;6.80;;;;;;;10.07;100.00;101955.28;5251876;28;20021;-71
2023/01/05 11:17:18;;;;;;;38.78;8.32;;;;;;;10.07;100.00;101957.94;5251838;28;20552;-70
2023/01/05 11:19:54;;;;;;;26.15;6.97;;;;;;;10.08;100.00;101962.34;5246470;28;20127;-70
2023/01/05 11:22:35;;;;;;;32.90;7.38;;;;;;;10.11;100.00;101959.53;5250440;28;20154;-70
2023/01/05 11:25:25;;;;;;;38.72;9.18;;;;;;;10.12;100.00;101958.56;5247643;28;20506;-71
2023/01/05 11:28:06;;;;;;;38.58;7.30;;;;;;;10.13;100.00;101955.81;5251618;28;20021;-70
2023/01/05 11:30:46;;;;;;;29.85;7.82;;;;;;;10.13;100.00;101954.97;5254024;28;20056;-70
2023/01/05 11:33:24;;;;;;;29.60;6.38;;;;;;;10.13;100.00;101953.16;5251818;28;20029;-70
2023/01/05 11:35:57;;;;;;;35.58;7.78;;;;;;;10.13;100.00;101950.47;5248957;28;20715;-70
2023/01/05 11:38:30;;;;;;;31.77;7.47;;;;;;;10.14;100.00;101943.34;5248165;28;20059;-70
2023/01/05 11:41:01;;;;;;;38.55;8.85;;;;;;;10.15;100.00;101947.72;5241323;28;20550;-70
2023/01/05 11:43:33;;;;;;;28.02;6.80;;;;;;;10.18;100.00;101934.19;5248677;28;20082;-69
2023/01/05 11:46:04;;;;;;;30.83;7.15;;;;;;;10.19;100.00;101941.28;5248263;28;20641;-70
2023/01/05 11:48:35;;;;;;;32.70;7.70;;;;;;;10.21;100.00;101942.03;5250925;28;20064;-70
2023/01/05 11:51:07;;;;;;;35.35;7.88;;;;;;;10.20;100.00;101941.19;5251208;28;20490;-70
2023/01/05 11:53:39;;;;;;;35.10;7.07;;;;;;;10.21;100.00;101937.56;5246991;28;20031;-70
2023/01/05 11:56:20;;;;;;;29.55;7.38;;;;;;;10.24;100.00;101946.31;5244081;28;20039;-70
2023/01/05 11:58:54;;;;;;;36.55;7.72;;;;;;;10.18;100.00;101940.41;5252439;28;20094;-70
2023/01/05 12:01:44;;;;;;;35.67;6.93;;;;;;;10.21;100.00;101926.88;5248398;28;20029;-70
2023/01/05 12:04:38;;;;;;;32.13;6.70;;;;;;;10.28;100.00;101937.19;5249490;28;20390;-70
2023/01/05 12:07:09;;;;;;;25.05;6.38;;;;;;;10.17;100.00;101928.03;5248362;28;20047;-70
2023/01/05 12:09:57;;;;;;;33.80;7.45;;;;;;;10.20;100.00;101932.31;5246597;28;20032;-70
2023/01/05 12:12:31;;;;;;;32.33;7.43;;;;;;;10.18;100.00;101926.19;5250643;28;20029;-71
2023/01/05 12:15:22;;;;;;;;;;;;;;;10.24;100.00;101930.31;5250418;28;20540;-70
2023/01/05 12:18:13;;;;;;;27.70;7.00;;;;;;;10.15;100.00;101934.41;5248481;28;19912;-70
2023/01/05 12:20:54;;;;;;;30.25;6.72;;;;;;;10.12;100.00;101931.91;5251714;28;20031;-70
2023/01/05 12:23:51;;;;;;;35.25;8.07;;;;;;;10.08;100.00;101928.53;5251130;28;20036;-70
2023/01/05 12:26:27;;;;;;;30.05;7.20;;;;;;;10.05;100.00;101930.50;5247045;28;20669;-70